sensor_id;sensor_type;location;lat;lon;timestamp;pressure;altitude;pressure_sealevel;temperature;humidity
48089;BME280;33867;50.314;7.802;2023-02-20T00:02:00;101511.16;;;5.73;nan
48089;BME280;33867;50.314;7.802;2023-02-20T00:05:26;101515.84;;;5.70;nan
48089;BME280;33867;50.314;7.802;2023-02-20T00:13:04;101510.34;;;5.55;nan
48089;BME280;33867;50.314;7.802;2023-02-20T00:17:06;101509.94;;;5.47;nan
48089;BME280;33867;50.314;7.802;2023-02-20T00:25:03;101511.56;;;5.50;nan
48089;BME280;33867;50.314;7.802;2023-02-20T00:28:32;101502.72;;;5.32;nan
48089;BME280;33867;50.314;7.802;2023-02-20T00:32:00;101503.00;;;5.43;nan
48089;BME280;33867;50.314;7.802;2023-02-20T00:35:25;101506.69;;;5.25;nan
48089;BME280;33867;50.314;7.802;2023-02-20T00:46:00;101495.34;;;5.37;nan
48089;BME280;33867;50.314;7.802;2023-02-20T00:49:19;101508.34;;;5.10;nan
48089;BME280;33867;50.314;7.802;2023-02-20T00:52:39;101488.72;;;4.94;nan
48089;BME280;33867;50.314;7.802;2023-02-20T00:55:58;101485.53;;;5.20;nan
48089;BME280;33867;50.314;7.802;2023-02-20T01:03:20;101483.66;;;4.89;nan
48089;BME280;33867;50.314;7.802;2023-02-20T01:06:39;101490.22;;;4.82;nan
48089;BME280;33867;50.314;7.802;2023-02-20T01:09:58;101489.38;;;4.64;nan
48089;BME280;33867;50.314;7.802;2023-02-20T01:13:17;101494.47;;;4.69;nan
48089;BME280;33867;50.314;7.802;2023-02-20T01:16:36;101492.50;;;4.55;nan
48089;BME280;33867;50.314;7.802;2023-02-20T01:19:55;101486.94;;;4.60;nan
48089;BME280;33867;50.314;7.802;2023-02-20T01:23:14;101479.81;;;4.24;nan
48089;BME280;33867;50.314;7.802;2023-02-20T01:26:33;101479.81;;;4.24;nan
48089;BME280;33867;50.314;7.802;2023-02-20T01:29:54;101475.22;;;4.28;nan
48089;BME280;33867;50.314;7.802;2023-02-20T01:33:13;101469.25;;;4.23;nan
48089;BME280;33867;50.314;7.802;2023-02-20T01:36:32;101469.09;;;4.26;nan
48089;BME280;33867;50.314;7.802;2023-02-20T01:53:58;101455.72;;;3.72;nan
48089;BME280;33867;50.314;7.802;2023-02-20T01:57:21;101453.56;;;3.80;nan
48089;BME280;33867;50.314;7.802;2023-02-20T02:05:29;101452.31;;;3.88;nan
48089;BME280;33867;50.314;7.802;2023-02-20T02:12:26;101455.31;;;3.99;nan
48089;BME280;33867;50.314;7.802;2023-02-20T02:15:45;101445.06;;;3.91;nan
48089;BME280;33867;50.314;7.802;2023-02-20T02:23:41;101454.38;;;4.00;nan
48089;BME280;33867;50.314;7.802;2023-02-20T02:27:21;101450.78;;;4.01;nan
48089;BME280;33867;50.314;7.802;2023-02-20T02:34:52;101454.97;;;3.88;nan
48089;BME280;33867;50.314;7.802;2023-02-20T02:38:54;101443.19;;;3.74;nan
48089;BME280;33867;50.314;7.802;2023-02-20T02:42:22;101445.84;;;3.93;nan
48089;BME280;33867;50.314;7.802;2023-02-20T02:45:58;101424.38;;;3.77;nan
48089;BME280;33867;50.314;7.802;2023-02-20T02:49:54;101435.09;;;3.95;nan
48089;BME280;33867;50.314;7.802;2023-02-20T02:53:16;101438.47;;;3.98;nan
48089;BME280;33867;50.314;7.802;2023-02-20T02:56:43;101436.66;;;3.99;nan
48089;BME280;33867;50.314;7.802;2023-02-20T03:03:37;101427.28;;;4.09;nan
48089;BME280;33867;50.314;7.802;2023-02-20T03:07:01;101428.81;;;4.15;nan
48089;BME280;33867;50.314;7.802;2023-02-20T03:10:24;101438.44;;;4.17;nan
48089;BME280;33867;50.314;7.802;2023-02-20T03:13:56;101432.16;;;4.18;nan
48089;BME280;33867;50.314;7.802;2023-02-20T03:17:39;101446.44;;;4.17;nan
48089;BME280;33867;50.314;7.802;2023-02-20T03:35:54;101422.78;;;4.28;nan
48089;BME280;33867;50.314;7.802;2023-02-20T03:43:16;101411.69;;;4.19;nan
48089;BME280;33867;50.314;7.802;2023-02-20T03:46:43;101397.03;;;3.93;nan
48089;BME280;33867;50.314;7.802;2023-02-20T03:50:05;101394.63;;;3.87;nan
48089;BME280;33867;50.314;7.802;2023-02-20T03:53:47;101388.34;;;3.70;nan
48089;BME280;33867;50.314;7.802;2023-02-20T03:57:31;101388.88;;;3.60;nan
48089;BME280;33867;50.314;7.802;2023-02-20T04:00:54;101385.84;;;3.30;nan
48089;BME280;33867;50.314;7.802;2023-02-20T04:04:20;101387.66;;;3.29;nan
48089;BME280;33867;50.314;7.802;2023-02-20T04:07:46;101381.66;;;3.43;nan
48089;BME280;33867;50.314;7.802;2023-02-20T04:11:13;101382.06;;;3.35;nan
48089;BME280;33867;50.314;7.802;2023-02-20T04:14:33;101394.25;;;3.02;nan
48089;BME280;33867;50.314;7.802;2023-02-20T04:18:08;101389.66;;;3.05;nan
48089;BME280;33867;50.314;7.802;2023-02-20T04:21:36;101398.63;;;3.03;nan
48089;BME280;33867;50.314;7.802;2023-02-20T04:24:58;101393.16;;;2.87;nan
48089;BME280;33867;50.314;7.802;2023-02-20T04:28:23;101396.13;;;3.00;nan
48089;BME280;33867;50.314;7.802;2023-02-20T04:31:48;101393.53;;;2.98;nan
48089;BME280;33867;50.314;7.802;2023-02-20T04:35:15;101398.13;;;2.94;nan
48089;BME280;33867;50.314;7.802;2023-02-20T04:38:35;101397.56;;;2.88;nan
48089;BME280;33867;50.314;7.802;2023-02-20T04:45:15;101399.09;;;2.73;nan
48089;BME280;33867;50.314;7.802;2023-02-20T04:48:38;101397.22;;;2.75;nan
48089;BME280;33867;50.314;7.802;2023-02-20T04:51:45;101402.41;;;2.78;nan
48089;BME280;33867;50.314;7.802;2023-02-20T04:55:04;101408.28;;;2.66;nan
48089;BME280;33867;50.314;7.802;2023-02-20T04:58:23;101403.34;;;2.77;nan
48089;BME280;33867;50.314;7.802;2023-02-20T05:01:46;101405.94;;;2.79;nan
48089;BME280;33867;50.314;7.802;2023-02-20T05:05:22;101399.97;;;2.53;nan
48089;BME280;33867;50.314;7.802;2023-02-20T05:08:41;101391.75;;;2.39;nan
48089;BME280;33867;50.314;7.802;2023-02-20T05:25:48;101393.66;;;2.56;nan
48089;BME280;33867;50.314;7.802;2023-02-20T05:36:24;101388.59;;;3.28;nan
48089;BME280;33867;50.314;7.802;2023-02-20T06:07:51;101363.34;;;3.37;nan
48089;BME280;33867;50.314;7.802;2023-02-20T06:11:11;101364.91;;;3.41;nan
48089;BME280;33867;50.314;7.802;2023-02-20T06:14:30;101368.50;;;3.59;nan
48089;BME280;33867;50.314;7.802;2023-02-20T06:17:50;101361.63;;;3.36;nan
48089;BME280;33867;50.314;7.802;2023-02-20T06:21:09;101365.69;;;3.43;nan
48089;BME280;33867;50.314;7.802;2023-02-20T06:24:29;101365.59;;;3.63;nan
48089;BME280;33867;50.314;7.802;2023-02-20T06:27:48;101353.56;;;3.37;nan
48089;BME280;33867;50.314;7.802;2023-02-20T06:31:08;101360.31;;;3.44;nan
48089;BME280;33867;50.314;7.802;2023-02-20T06:34:27;101353.41;;;3.40;nan
48089;BME280;33867;50.314;7.802;2023-02-20T06:37:49;101356.88;;;3.23;nan
48089;BME280;33867;50.314;7.802;2023-02-20T06:41:08;101348.66;;;3.47;nan
48089;BME280;33867;50.314;7.802;2023-02-20T06:44:27;101340.94;;;3.41;nan
48089;BME280;33867;50.314;7.802;2023-02-20T06:47:46;101346.16;;;3.44;nan
48089;BME280;33867;50.314;7.802;2023-02-20T06:51:05;101347.81;;;3.28;nan
48089;BME280;33867;50.314;7.802;2023-02-20T06:54:24;101346.94;;;3.46;nan
48089;BME280;33867;50.314;7.802;2023-02-20T06:57:44;101347.00;;;3.26;nan
48089;BME280;33867;50.314;7.802;2023-02-20T07:01:03;101350.53;;;3.45;nan
48089;BME280;33867;50.314;7.802;2023-02-20T07:04:24;101353.38;;;3.59;nan
48089;BME280;33867;50.314;7.802;2023-02-20T07:07:44;101344.75;;;3.54;nan
48089;BME280;33867;50.314;7.802;2023-02-20T07:11:03;101347.91;;;3.62;nan
48089;BME280;33867;50.314;7.802;2023-02-20T07:14:22;101349.63;;;3.63;nan
48089;BME280;33867;50.314;7.802;2023-02-20T07:17:41;101345.91;;;3.67;nan
48089;BME280;33867;50.314;7.802;2023-02-20T07:21:22;101339.75;;;3.65;nan
48089;BME280;33867;50.314;7.802;2023-02-20T07:24:40;101347.50;;;4.06;nan
48089;BME280;33867;50.314;7.802;2023-02-20T07:27:59;101340.31;;;3.72;nan
48089;BME280;33867;50.314;7.802;2023-02-20T07:31:18;101338.41;;;3.93;nan
48089;BME280;33867;50.314;7.802;2023-02-20T07:34:37;101330.88;;;4.18;nan
48089;BME280;33867;50.314;7.802;2023-02-20T07:37:56;101323.97;;;3.97;nan
48089;BME280;33867;50.314;7.802;2023-02-20T07:41:15;101317.38;;;4.21;nan
48089;BME280;33867;50.314;7.802;2023-02-20T07:44:35;101320.66;;;4.44;nan
48089;BME280;33867;50.314;7.802;2023-02-20T07:47:54;101310.47;;;4.52;nan
48089;BME280;33867;50.314;7.802;2023-02-20T07:51:13;101307.13;;;4.64;nan
48089;BME280;33867;50.314;7.802;2023-02-20T07:54:32;101311.44;;;4.66;nan
48089;BME280;33867;50.314;7.802;2023-02-20T07:57:52;101304.56;;;4.78;nan
48089;BME280;33867;50.314;7.802;2023-02-20T08:01:16;101289.78;;;4.88;nan
48089;BME280;33867;50.314;7.802;2023-02-20T08:04:35;101298.75;;;5.19;nan
48089;BME280;33867;50.314;7.802;2023-02-20T08:07:54;101291.16;;;4.95;nan
48089;BME280;33867;50.314;7.802;2023-02-20T08:11:14;101288.44;;;5.13;nan
48089;BME280;33867;50.314;7.802;2023-02-20T08:14:33;101285.31;;;5.20;nan
48089;BME280;33867;50.314;7.802;2023-02-20T08:17:52;101282.47;;;4.92;nan
48089;BME280;33867;50.314;7.802;2023-02-20T08:21:11;101278.22;;;4.72;nan
48089;BME280;33867;50.314;7.802;2023-02-20T08:24:30;101284.84;;;4.81;nan
48089;BME280;33867;50.314;7.802;2023-02-20T08:27:50;101277.06;;;5.09;nan
48089;BME280;33867;50.314;7.802;2023-02-20T08:31:09;101279.19;;;5.03;nan
48089;BME280;33867;50.314;7.802;2023-02-20T08:34:28;101284.78;;;5.45;nan
48089;BME280;33867;50.314;7.802;2023-02-20T08:37:47;101278.25;;;5.35;nan
48089;BME280;33867;50.314;7.802;2023-02-20T08:41:09;101282.28;;;5.58;nan
48089;BME280;33867;50.314;7.802;2023-02-20T08:44:29;101287.53;;;5.60;nan
48089;BME280;33867;50.314;7.802;2023-02-20T08:47:49;101285.00;;;5.72;nan
48089;BME280;33867;50.314;7.802;2023-02-20T08:51:08;101283.84;;;5.76;nan
48089;BME280;33867;50.314;7.802;2023-02-20T08:54:27;101286.91;;;6.00;nan
48089;BME280;33867;50.314;7.802;2023-02-20T08:57:46;101297.84;;;6.26;nan
48089;BME280;33867;50.314;7.802;2023-02-20T09:01:06;101300.63;;;6.38;nan
48089;BME280;33867;50.314;7.802;2023-02-20T09:04:25;101303.81;;;6.45;nan
48089;BME280;33867;50.314;7.802;2023-02-20T09:07:44;101298.38;;;6.61;nan
48089;BME280;33867;50.314;7.802;2023-02-20T09:11:03;101308.59;;;6.83;nan
48089;BME280;33867;50.314;7.802;2023-02-20T09:14:22;101312.97;;;6.98;nan
48089;BME280;33867;50.314;7.802;2023-02-20T09:17:42;101321.69;;;7.01;nan
48089;BME280;33867;50.314;7.802;2023-02-20T09:21:10;101309.44;;;7.12;nan
48089;BME280;33867;50.314;7.802;2023-02-20T09:24:29;101310.75;;;7.19;nan
48089;BME280;33867;50.314;7.802;2023-02-20T09:27:51;101305.19;;;7.22;nan
48089;BME280;33867;50.314;7.802;2023-02-20T09:31:11;101322.91;;;7.24;nan
48089;BME280;33867;50.314;7.802;2023-02-20T09:34:30;101319.72;;;7.32;nan
48089;BME280;33867;50.314;7.802;2023-02-20T09:37:52;101323.03;;;7.50;nan
48089;BME280;33867;50.314;7.802;2023-02-20T09:41:41;101315.19;;;7.74;nan
48089;BME280;33867;50.314;7.802;2023-02-20T09:52:14;101315.59;;;7.95;nan
48089;BME280;33867;50.314;7.802;2023-02-20T10:08:58;101298.94;;;8.67;nan
48089;BME280;33867;50.314;7.802;2023-02-20T10:12:55;101301.72;;;8.91;nan
48089;BME280;33867;50.314;7.802;2023-02-20T10:29:13;101277.97;;;9.93;nan
48089;BME280;33867;50.314;7.802;2023-02-20T10:32:47;101274.50;;;10.15;nan
48089;BME280;33867;50.314;7.802;2023-02-20T10:36:15;101264.91;;;10.24;nan
48089;BME280;33867;50.314;7.802;2023-02-20T10:39:37;101266.50;;;11.59;nan
48089;BME280;33867;50.314;7.802;2023-02-20T10:43:10;101257.13;;;12.48;nan
48089;BME280;33867;50.314;7.802;2023-02-20T10:46:40;101255.91;;;13.71;nan
48089;BME280;33867;50.314;7.802;2023-02-20T10:50:24;101257.50;;;13.93;nan
48089;BME280;33867;50.314;7.802;2023-02-20T10:54:03;101248.22;;;14.81;nan
48089;BME280;33867;50.314;7.802;2023-02-20T11:01:57;101230.47;;;15.77;nan
48089;BME280;33867;50.314;7.802;2023-02-20T11:05:47;101231.44;;;16.64;nan
48089;BME280;33867;50.314;7.802;2023-02-20T11:09:18;101223.06;;;16.83;nan
48089;BME280;33867;50.314;7.802;2023-02-20T11:12:55;101212.50;;;16.80;nan
48089;BME280;33867;50.314;7.802;2023-02-20T11:16:26;101218.22;;;16.69;nan
48089;BME280;33867;50.314;7.802;2023-02-20T11:19:49;101219.97;;;16.52;nan
48089;BME280;33867;50.314;7.802;2023-02-20T11:23:08;101215.81;;;15.88;nan
48089;BME280;33867;50.314;7.802;2023-02-20T11:26:31;101216.50;;;15.55;nan
48089;BME280;33867;50.314;7.802;2023-02-20T11:29:57;101202.94;;;14.54;nan
48089;BME280;33867;50.314;7.802;2023-02-20T11:33:21;101197.69;;;13.87;nan
48089;BME280;33867;50.314;7.802;2023-02-20T11:36:46;101203.34;;;13.26;nan
48089;BME280;33867;50.314;7.802;2023-02-20T11:40:26;101193.25;;;13.37;nan
48089;BME280;33867;50.314;7.802;2023-02-20T11:43:47;101183.13;;;13.88;nan
48089;BME280;33867;50.314;7.802;2023-02-20T11:47:23;101181.28;;;13.59;nan
48089;BME280;33867;50.314;7.802;2023-02-20T11:50:49;101170.53;;;14.16;nan
48089;BME280;33867;50.314;7.802;2023-02-20T11:54:15;101173.84;;;14.00;nan
48089;BME280;33867;50.314;7.802;2023-02-20T11:57:41;101168.34;;;13.34;nan
48089;BME280;33867;50.314;7.802;2023-02-20T12:01:03;101169.41;;;13.12;nan
48089;BME280;33867;50.314;7.802;2023-02-20T12:04:23;101151.47;;;12.92;nan
48089;BME280;33867;50.314;7.802;2023-02-20T12:07:56;101164.50;;;12.77;nan
48089;BME280;33867;50.314;7.802;2023-02-20T12:15:19;101149.75;;;12.81;nan
48089;BME280;33867;50.314;7.802;2023-02-20T12:19:09;101153.91;;;12.95;nan
48089;BME280;33867;50.314;7.802;2023-02-20T12:23:13;101154.13;;;13.51;nan
48089;BME280;33867;50.314;7.802;2023-02-20T12:26:50;101138.53;;;13.92;nan
48089;BME280;33867;50.314;7.802;2023-02-20T12:43:20;101096.22;;;15.36;nan
48089;BME280;33867;50.314;7.802;2023-02-20T13:01:50;101069.41;;;16.45;nan
48089;BME280;33867;50.314;7.802;2023-02-20T13:05:22;101079.09;;;16.90;nan
48089;BME280;33867;50.314;7.802;2023-02-20T13:09:17;101063.63;;;16.40;nan
48089;BME280;33867;50.314;7.802;2023-02-20T13:12:37;101051.91;;;16.98;nan
48089;BME280;33867;50.314;7.802;2023-02-20T13:16:25;101026.75;;;16.96;nan
48089;BME280;33867;50.314;7.802;2023-02-20T13:20:02;101027.06;;;17.01;nan
48089;BME280;33867;50.314;7.802;2023-02-20T13:24:27;101022.16;;;17.29;nan
48089;BME280;33867;50.314;7.802;2023-02-20T13:27:59;101000.66;;;17.59;nan
48089;BME280;33867;50.314;7.802;2023-02-20T13:40:42;100976.44;;;18.27;nan
48089;BME280;33867;50.314;7.802;2023-02-20T13:44:40;100960.84;;;18.13;nan
48089;BME280;33867;50.314;7.802;2023-02-20T13:55:52;100955.72;;;18.10;nan
48089;BME280;33867;50.314;7.802;2023-02-20T14:03:21;100954.66;;;18.19;nan
48089;BME280;33867;50.314;7.802;2023-02-20T14:06:51;100934.22;;;17.84;nan
48089;BME280;33867;50.314;7.802;2023-02-20T14:14:32;100928.69;;;17.69;nan
48089;BME280;33867;50.314;7.802;2023-02-20T14:17:53;100918.50;;;17.47;nan
48089;BME280;33867;50.314;7.802;2023-02-20T14:28:33;100897.16;;;17.75;nan
48089;BME280;33867;50.314;7.802;2023-02-20T14:31:54;100899.59;;;18.01;nan
48089;BME280;33867;50.314;7.802;2023-02-20T14:48:31;100894.00;;;17.39;nan
48089;BME280;33867;50.314;7.802;2023-02-20T15:00:43;100869.28;;;16.12;nan
48089;BME280;33867;50.314;7.802;2023-02-20T15:07:38;100864.94;;;15.76;nan
48089;BME280;33867;50.314;7.802;2023-02-20T15:11:07;100866.75;;;15.68;nan
48089;BME280;33867;50.314;7.802;2023-02-20T15:23:27;100850.63;;;14.72;nan
48089;BME280;33867;50.314;7.802;2023-02-20T15:40:27;100855.91;;;14.02;nan
48089;BME280;33867;50.314;7.802;2023-02-20T15:44:17;100851.97;;;13.69;nan
48089;BME280;33867;50.314;7.802;2023-02-20T15:48:20;100853.59;;;13.62;nan
48089;BME280;33867;50.314;7.802;2023-02-20T15:51:47;100851.34;;;13.58;nan
48089;BME280;33867;50.314;7.802;2023-02-20T15:55:17;100846.78;;;13.31;nan
48089;BME280;33867;50.314;7.802;2023-02-20T15:58:41;100840.13;;;13.15;nan
48089;BME280;33867;50.314;7.802;2023-02-20T16:06:24;100827.19;;;13.09;nan
48089;BME280;33867;50.314;7.802;2023-02-20T16:09:46;100833.09;;;12.85;nan
48089;BME280;33867;50.314;7.802;2023-02-20T16:13:43;100829.75;;;12.64;nan
48089;BME280;33867;50.314;7.802;2023-02-20T16:17:18;100832.66;;;12.34;nan
48089;BME280;33867;50.314;7.802;2023-02-20T16:20:46;100822.69;;;12.15;nan
48089;BME280;33867;50.314;7.802;2023-02-20T16:24:14;100830.59;;;11.78;nan
48089;BME280;33867;50.314;7.802;2023-02-20T16:27:39;100818.22;;;11.65;nan
48089;BME280;33867;50.314;7.802;2023-02-20T16:31:06;100829.31;;;11.62;nan
48089;BME280;33867;50.314;7.802;2023-02-20T16:34:27;100826.84;;;11.50;nan
48089;BME280;33867;50.314;7.802;2023-02-20T16:38:14;100824.06;;;11.21;nan
48089;BME280;33867;50.314;7.802;2023-02-20T16:42:01;100823.31;;;11.09;nan
48089;BME280;33867;50.314;7.802;2023-02-20T16:45:30;100834.97;;;10.89;nan
48089;BME280;33867;50.314;7.802;2023-02-20T16:48:54;100843.31;;;10.86;nan
48089;BME280;33867;50.314;7.802;2023-02-20T17:03:56;100839.19;;;10.40;nan
48089;BME280;33867;50.314;7.802;2023-02-20T17:12:08;100844.59;;;10.08;nan
48089;BME280;33867;50.314;7.802;2023-02-20T17:15:43;100844.97;;;10.03;nan
48089;BME280;33867;50.314;7.802;2023-02-20T17:19:05;100856.50;;;9.94;nan
48089;BME280;33867;50.314;7.802;2023-02-20T17:22:25;100853.16;;;10.02;nan
48089;BME280;33867;50.314;7.802;2023-02-20T17:25:44;100857.91;;;10.09;nan
48089;BME280;33867;50.314;7.802;2023-02-20T17:29:05;100862.66;;;9.85;nan
48089;BME280;33867;50.314;7.802;2023-02-20T17:32:27;100865.59;;;9.71;nan
48089;BME280;33867;50.314;7.802;2023-02-20T17:35:49;100871.63;;;9.52;nan
48089;BME280;33867;50.314;7.802;2023-02-20T17:39:08;100874.94;;;9.44;nan
48089;BME280;33867;50.314;7.802;2023-02-20T17:42:28;100877.16;;;9.39;nan
48089;BME280;33867;50.314;7.802;2023-02-20T17:45:52;100888.63;;;9.41;nan
48089;BME280;33867;50.314;7.802;2023-02-20T17:49:24;100873.22;;;9.32;nan
48089;BME280;33867;50.314;7.802;2023-02-20T17:52:43;100889.59;;;9.29;nan
48089;BME280;33867;50.314;7.802;2023-02-20T17:56:03;100902.19;;;9.28;nan
48089;BME280;33867;50.314;7.802;2023-02-20T17:59:23;100907.94;;;9.24;nan
48089;BME280;33867;50.314;7.802;2023-02-20T18:02:42;100908.88;;;9.23;nan
48089;BME280;33867;50.314;7.802;2023-02-20T18:06:01;100917.72;;;9.25;nan
48089;BME280;33867;50.314;7.802;2023-02-20T18:09:21;100927.06;;;9.08;nan
48089;BME280;33867;50.314;7.802;2023-02-20T18:12:39;100925.97;;;8.99;nan
48089;BME280;33867;50.314;7.802;2023-02-20T18:16:01;100934.66;;;9.03;nan
48089;BME280;33867;50.314;7.802;2023-02-20T18:19:20;100930.38;;;9.00;nan
48089;BME280;33867;50.314;7.802;2023-02-20T18:22:39;100929.53;;;9.00;nan
48089;BME280;33867;50.314;7.802;2023-02-20T18:25:58;100932.31;;;8.98;nan
48089;BME280;33867;50.314;7.802;2023-02-20T18:29:17;100929.59;;;8.87;nan
48089;BME280;33867;50.314;7.802;2023-02-20T18:32:39;100939.59;;;8.85;nan
48089;BME280;33867;50.314;7.802;2023-02-20T18:35:58;100934.22;;;8.85;nan
48089;BME280;33867;50.314;7.802;2023-02-20T18:39:17;100939.44;;;8.75;nan
48089;BME280;33867;50.314;7.802;2023-02-20T18:42:38;100930.78;;;8.72;nan
48089;BME280;33867;50.314;7.802;2023-02-20T18:45:57;100937.34;;;8.57;nan
48089;BME280;33867;50.314;7.802;2023-02-20T18:49:18;100931.34;;;8.53;nan
48089;BME280;33867;50.314;7.802;2023-02-20T18:52:37;100924.84;;;8.44;nan
48089;BME280;33867;50.314;7.802;2023-02-20T18:55:57;100935.81;;;8.41;nan
48089;BME280;33867;50.314;7.802;2023-02-20T18:59:17;100937.25;;;8.34;nan
48089;BME280;33867;50.314;7.802;2023-02-20T19:02:36;100954.19;;;8.35;nan
48089;BME280;33867;50.314;7.802;2023-02-20T19:05:55;100950.22;;;8.28;nan
48089;BME280;33867;50.314;7.802;2023-02-20T19:09:17;100948.63;;;8.25;nan
48089;BME280;33867;50.314;7.802;2023-02-20T19:12:37;100953.72;;;8.17;nan
48089;BME280;33867;50.314;7.802;2023-02-20T19:15:56;100957.47;;;8.14;nan
48089;BME280;33867;50.314;7.802;2023-02-20T19:19:17;100953.03;;;7.89;nan
48089;BME280;33867;50.314;7.802;2023-02-20T19:22:36;100947.69;;;7.89;nan
48089;BME280;33867;50.314;7.802;2023-02-20T19:25:55;100961.19;;;7.88;nan
48089;BME280;33867;50.314;7.802;2023-02-20T19:29:17;100953.75;;;7.68;nan
48089;BME280;33867;50.314;7.802;2023-02-20T19:32:42;100949.47;;;7.65;nan
48089;BME280;33867;50.314;7.802;2023-02-20T19:36:05;100946.66;;;7.67;nan
48089;BME280;33867;50.314;7.802;2023-02-20T19:39:24;100954.41;;;7.71;nan
48089;BME280;33867;50.314;7.802;2023-02-20T19:42:44;100959.78;;;7.46;nan
48089;BME280;33867;50.314;7.802;2023-02-20T19:46:03;100963.31;;;7.21;nan
48089;BME280;33867;50.314;7.802;2023-02-20T19:49:24;100969.66;;;7.07;nan
48089;BME280;33867;50.314;7.802;2023-02-20T19:52:46;100956.16;;;7.09;nan
48089;BME280;33867;50.314;7.802;2023-02-20T19:56:06;100954.66;;;7.17;nan
48089;BME280;33867;50.314;7.802;2023-02-20T19:59:27;100964.63;;;7.02;nan
48089;BME280;33867;50.314;7.802;2023-02-20T20:02:50;100975.44;;;7.01;nan
48089;BME280;33867;50.314;7.802;2023-02-20T20:06:13;100976.06;;;6.92;nan
48089;BME280;33867;50.314;7.802;2023-02-20T20:09:32;100972.63;;;6.77;nan
48089;BME280;33867;50.314;7.802;2023-02-20T20:12:51;100970.25;;;6.72;nan
48089;BME280;33867;50.314;7.802;2023-02-20T20:16:10;100989.88;;;6.46;nan
48089;BME280;33867;50.314;7.802;2023-02-20T20:19:29;100987.75;;;6.51;nan
48089;BME280;33867;50.314;7.802;2023-02-20T20:22:52;100973.41;;;6.52;nan
48089;BME280;33867;50.314;7.802;2023-02-20T20:26:11;100981.03;;;6.31;nan
48089;BME280;33867;50.314;7.802;2023-02-20T20:29:30;100964.94;;;6.19;nan
48089;BME280;33867;50.314;7.802;2023-02-20T20:32:50;100965.38;;;5.98;nan
48089;BME280;33867;50.314;7.802;2023-02-20T20:36:13;100964.44;;;5.99;nan
48089;BME280;33867;50.314;7.802;2023-02-20T20:39:32;100960.00;;;6.12;nan
48089;BME280;33867;50.314;7.802;2023-02-20T20:42:52;100971.41;;;5.73;nan
48089;BME280;33867;50.314;7.802;2023-02-20T20:46:11;100974.16;;;5.86;nan
48089;BME280;33867;50.314;7.802;2023-02-20T20:53:07;100955.56;;;5.99;nan
48089;BME280;33867;50.314;7.802;2023-02-20T20:56:26;100952.88;;;5.99;nan
48089;BME280;33867;50.314;7.802;2023-02-20T20:59:46;100957.97;;;5.75;nan
48089;BME280;33867;50.314;7.802;2023-02-20T21:03:06;100966.19;;;5.43;nan
48089;BME280;33867;50.314;7.802;2023-02-20T21:06:28;100969.72;;;5.29;nan
48089;BME280;33867;50.314;7.802;2023-02-20T21:09:46;100965.72;;;5.37;nan
48089;BME280;33867;50.314;7.802;2023-02-20T21:13:06;100968.94;;;5.42;nan
48089;BME280;33867;50.314;7.802;2023-02-20T21:16:25;100974.28;;;5.27;nan
48089;BME280;33867;50.314;7.802;2023-02-20T21:19:44;100973.53;;;5.25;nan
48089;BME280;33867;50.314;7.802;2023-02-20T21:23:06;100983.16;;;5.28;nan
48089;BME280;33867;50.314;7.802;2023-02-20T21:26:27;100978.78;;;5.13;nan
48089;BME280;33867;50.314;7.802;2023-02-20T21:29:46;100988.25;;;4.88;nan
48089;BME280;33867;50.314;7.802;2023-02-20T21:33:05;100978.66;;;5.00;nan
48089;BME280;33867;50.314;7.802;2023-02-20T21:36:25;100979.53;;;5.15;nan
48089;BME280;33867;50.314;7.802;2023-02-20T21:39:44;100978.53;;;4.87;nan
48089;BME280;33867;50.314;7.802;2023-02-20T21:43:03;100981.97;;;4.89;nan
48089;BME280;33867;50.314;7.802;2023-02-20T21:46:44;100977.31;;;4.93;nan
48089;BME280;33867;50.314;7.802;2023-02-20T21:50:05;100972.81;;;4.93;nan
48089;BME280;33867;50.314;7.802;2023-02-20T21:53:34;100970.63;;;4.86;nan
48089;BME280;33867;50.314;7.802;2023-02-20T21:57:54;100965.34;;;4.70;nan
48089;BME280;33867;50.314;7.802;2023-02-20T22:01:14;100969.25;;;4.49;nan
48089;BME280;33867;50.314;7.802;2023-02-20T22:04:33;100968.78;;;4.72;nan
48089;BME280;33867;50.314;7.802;2023-02-20T22:07:53;100967.44;;;4.65;nan
48089;BME280;33867;50.314;7.802;2023-02-20T22:11:32;100976.97;;;4.39;nan
48089;BME280;33867;50.314;7.802;2023-02-20T22:15:12;100975.66;;;4.46;nan
48089;BME280;33867;50.314;7.802;2023-02-20T22:18:50;100979.88;;;4.50;nan
48089;BME280;33867;50.314;7.802;2023-02-20T22:22:28;100968.78;;;4.42;nan
48089;BME280;33867;50.314;7.802;2023-02-20T22:26:06;100977.97;;;4.36;nan
48089;BME280;33867;50.314;7.802;2023-02-20T22:29:44;100973.19;;;4.27;nan
48089;BME280;33867;50.314;7.802;2023-02-20T22:33:22;100979.97;;;4.33;nan
48089;BME280;33867;50.314;7.802;2023-02-20T22:37:00;100982.59;;;4.19;nan
48089;BME280;33867;50.314;7.802;2023-02-20T22:40:40;100983.13;;;3.94;nan
48089;BME280;33867;50.314;7.802;2023-02-20T22:44:18;100988.50;;;4.08;nan
48089;BME280;33867;50.314;7.802;2023-02-20T22:47:56;100977.25;;;4.19;nan
48089;BME280;33867;50.314;7.802;2023-02-20T22:51:34;100968.88;;;4.25;nan
48089;BME280;33867;50.314;7.802;2023-02-20T22:55:13;100966.84;;;4.14;nan
48089;BME280;33867;50.314;7.802;2023-02-20T23:10:36;100949.31;;;3.63;nan
48089;BME280;33867;50.314;7.802;2023-02-20T23:14:14;100953.47;;;3.68;nan
48089;BME280;33867;50.314;7.802;2023-02-20T23:17:52;100945.28;;;3.71;nan
48089;BME280;33867;50.314;7.802;2023-02-20T23:21:36;100947.59;;;3.62;nan
48089;BME280;33867;50.314;7.802;2023-02-20T23:25:14;100960.25;;;3.74;nan
48089;BME280;33867;50.314;7.802;2023-02-20T23:28:53;100950.34;;;3.76;nan
48089;BME280;33867;50.314;7.802;2023-02-20T23:32:33;100961.19;;;3.57;nan
48089;BME280;33867;50.314;7.802;2023-02-20T23:36:11;100957.31;;;3.63;nan
48089;BME280;33867;50.314;7.802;2023-02-20T23:39:49;100948.66;;;3.59;nan
48089;BME280;33867;50.314;7.802;2023-02-20T23:43:28;100943.50;;;3.56;nan
48089;BME280;33867;50.314;7.802;2023-02-20T23:47:06;100941.94;;;3.52;nan
48089;BME280;33867;50.314;7.802;2023-02-20T23:50:45;100943.72;;;3.51;nan